createdAt,value
2023-03-23T00:01:22.998Z,23.65
2023-03-23T00:03:28.242Z,23.65
2023-03-23T00:05:33.677Z,23.66
2023-03-23T00:07:39.380Z,23.64
2023-03-23T00:09:44.367Z,23.61
2023-03-23T00:11:49.691Z,23.63
2023-03-23T00:13:54.669Z,23.63
2023-03-23T00:15:59.629Z,23.6
2023-03-23T00:18:09.424Z,23.62
2023-03-23T00:20:14.688Z,23.62
2023-03-23T00:22:19.696Z,23.62
2023-03-23T00:24:24.797Z,23.61
2023-03-23T00:26:29.988Z,23.61
2023-03-23T00:28:53.354Z,23.64
2023-03-23T00:30:58.472Z,23.65
2023-03-23T00:33:03.535Z,23.66
2023-03-23T00:35:08.575Z,23.68
2023-03-23T00:37:14.389Z,23.68
2023-03-23T00:39:19.625Z,23.68
2023-03-23T00:41:25.631Z,23.68
2023-03-23T00:43:30.710Z,23.67
2023-03-23T00:45:36.160Z,23.67
2023-03-23T00:47:41.359Z,23.64
2023-03-23T00:49:47.186Z,23.63
2023-03-23T00:51:52.416Z,23.63
2023-03-23T00:53:57.682Z,23.64
2023-03-23T00:56:02.793Z,23.64
2023-03-23T00:58:08.635Z,23.65
2023-03-23T01:00:13.585Z,23.63
2023-03-23T01:02:18.565Z,23.63
2023-03-23T01:04:23.761Z,23.64
2023-03-23T01:06:28.967Z,23.63
2023-03-23T01:08:34.367Z,23.62
2023-03-23T01:10:39.740Z,23.63
2023-03-23T01:12:44.753Z,23.62
2023-03-23T01:14:50.031Z,23.59
2023-03-23T01:16:55.360Z,23.61
2023-03-23T01:19:00.344Z,23.59
2023-03-23T01:21:05.840Z,23.59
2023-03-23T01:23:10.921Z,23.57
2023-03-23T01:25:16.005Z,23.54
2023-03-23T01:27:27.158Z,23.56
2023-03-23T01:29:32.173Z,23.56
2023-03-23T01:31:37.475Z,23.56
2023-03-23T01:33:42.434Z,23.57
2023-03-23T01:35:47.861Z,23.6
2023-03-23T01:37:53.315Z,23.61
2023-03-23T01:39:58.469Z,23.6
2023-03-23T01:42:03.505Z,23.6
2023-03-23T01:44:09.130Z,23.6
2023-03-23T01:46:14.231Z,23.6
2023-03-23T01:48:19.306Z,23.59
2023-03-23T01:50:24.918Z,23.58
2023-03-23T01:52:30.627Z,23.57
2023-03-23T01:54:36.026Z,23.55
2023-03-23T01:56:41.070Z,23.56
2023-03-23T01:58:46.323Z,23.55
2023-03-23T02:00:51.729Z,23.53
2023-03-23T02:02:57.150Z,23.52
2023-03-23T02:05:02.154Z,23.53
2023-03-23T02:07:07.330Z,23.52
2023-03-23T02:09:12.284Z,23.49
2023-03-23T02:11:21.790Z,23.5
2023-03-23T02:13:27.210Z,23.5
2023-03-23T02:15:32.173Z,23.5
2023-03-23T02:17:37.510Z,23.5
2023-03-23T02:19:42.724Z,23.49
2023-03-23T02:21:48.536Z,23.49
2023-03-23T02:23:54.209Z,23.49
2023-03-23T02:25:59.780Z,23.48
2023-03-23T02:28:05.578Z,23.48
2023-03-23T02:30:10.678Z,23.48
2023-03-23T02:32:16.277Z,23.47
2023-03-23T02:34:22.219Z,23.46
2023-03-23T02:36:27.675Z,23.46
2023-03-23T02:38:32.648Z,23.44
2023-03-23T02:40:38.093Z,23.44
2023-03-23T02:42:43.084Z,23.43
2023-03-23T02:44:48.750Z,23.44
2023-03-23T02:46:53.723Z,23.43
2023-03-23T02:48:58.797Z,23.44
2023-03-23T02:51:04.151Z,23.45
2023-03-23T02:53:09.358Z,23.47
2023-03-23T02:55:14.628Z,23.5
2023-03-23T02:57:20.214Z,23.47
2023-03-23T02:59:45.533Z,23.48
2023-03-23T03:01:50.895Z,23.48
2023-03-23T03:03:56.378Z,23.48
2023-03-23T03:06:01.475Z,23.48
2023-03-23T03:08:06.792Z,23.49
2023-03-23T03:10:12.765Z,23.49
2023-03-23T03:12:22.798Z,23.49
2023-03-23T03:14:27.800Z,23.48
2023-03-23T03:16:32.865Z,23.48
2023-03-23T03:18:37.963Z,23.47
2023-03-23T03:20:43.432Z,23.46
2023-03-23T03:22:49.462Z,23.45
2023-03-23T03:24:54.467Z,23.43
2023-03-23T03:27:00.251Z,23.42
2023-03-23T03:29:05.320Z,23.42
2023-03-23T03:31:10.280Z,23.42
2023-03-23T03:33:15.397Z,23.42
2023-03-23T03:35:20.648Z,23.4
2023-03-23T03:37:26.549Z,23.42
2023-03-23T03:39:31.579Z,23.44
2023-03-23T03:41:37.152Z,23.44
2023-03-23T03:43:42.216Z,23.46
2023-03-23T03:45:47.213Z,23.45
2023-03-23T03:47:52.268Z,23.46
2023-03-23T03:49:58.010Z,23.47
2023-03-23T03:52:04.093Z,23.46
2023-03-23T03:54:09.938Z,23.45
2023-03-23T03:56:15.198Z,23.44
2023-03-23T03:58:20.225Z,23.42
2023-03-23T04:00:25.555Z,23.44
2023-03-23T04:02:30.793Z,23.43
2023-03-23T04:05:45.301Z,23.4
2023-03-23T04:08:09.431Z,23.43
2023-03-23T04:10:15.047Z,23.41
2023-03-23T04:12:37.763Z,23.44
2023-03-23T04:14:42.762Z,23.41
2023-03-23T04:16:54.574Z,23.41
2023-03-23T04:19:01.294Z,23.41
2023-03-23T04:21:06.382Z,23.4
2023-03-23T04:23:11.910Z,23.39
2023-03-23T04:25:21.845Z,23.39
2023-03-23T04:27:27.574Z,23.39
2023-03-23T04:29:33.560Z,23.37
2023-03-23T04:31:38.553Z,23.35
2023-03-23T04:33:58.535Z,23.36
2023-03-23T04:36:06.184Z,23.37
2023-03-23T04:38:11.296Z,23.37
2023-03-23T04:40:16.329Z,23.38
2023-03-23T04:42:21.333Z,23.36
2023-03-23T04:44:26.594Z,23.35
2023-03-23T04:46:31.696Z,23.35
2023-03-23T04:48:36.663Z,23.35
2023-03-23T04:50:41.786Z,23.35
2023-03-23T04:52:46.832Z,23.35
2023-03-23T04:54:54.332Z,23.35
2023-03-23T04:56:59.348Z,23.35
2023-03-23T04:59:04.335Z,23.34
2023-03-23T05:01:09.479Z,23.33
2023-03-23T05:03:14.460Z,23.34
2023-03-23T05:05:19.551Z,23.34
2023-03-23T05:07:24.573Z,23.33
2023-03-23T05:09:29.637Z,23.31
2023-03-23T05:11:34.621Z,23.32
2023-03-23T05:13:39.623Z,23.32
2023-03-23T05:15:44.642Z,23.32
2023-03-23T05:17:52.205Z,23.31
2023-03-23T05:19:57.179Z,23.32
2023-03-23T05:22:02.159Z,23.34
2023-03-23T05:24:07.110Z,23.33
2023-03-23T05:26:12.094Z,23.33
2023-03-23T05:28:17.099Z,23.34
2023-03-23T05:30:22.069Z,23.33
2023-03-23T05:32:27.089Z,23.35
2023-03-23T05:34:32.095Z,23.34
2023-03-23T05:36:37.074Z,23.34
2023-03-23T05:38:42.192Z,23.34
2023-03-23T05:40:47.183Z,23.34
2023-03-23T05:42:52.131Z,23.39
2023-03-23T05:44:57.143Z,23.37
2023-03-23T05:47:02.099Z,23.37
2023-03-23T05:49:07.155Z,23.37
2023-03-23T05:51:12.152Z,23.36
2023-03-23T05:53:17.123Z,23.33
2023-03-23T05:55:22.149Z,23.35
2023-03-23T05:57:27.105Z,23.36
2023-03-23T05:59:32.090Z,23.36
2023-03-23T06:01:47.166Z,23.38
2023-03-23T06:03:55.554Z,23.38
2023-03-23T06:06:03.357Z,23.38
2023-03-23T06:08:08.483Z,23.38
2023-03-23T06:10:13.505Z,23.37
2023-03-23T06:12:18.542Z,23.39
2023-03-23T06:14:23.577Z,23.43
2023-03-23T06:16:28.585Z,23.49
2023-03-23T06:18:33.560Z,23.53
2023-03-23T06:20:38.587Z,23.57
2023-03-23T06:22:51.926Z,23.6
2023-03-23T06:24:56.891Z,23.59
2023-03-23T06:27:01.847Z,23.6
2023-03-23T06:29:06.934Z,23.61
2023-03-23T06:31:11.976Z,23.63
2023-03-23T06:33:18.293Z,23.6
2023-03-23T06:35:24.833Z,23.56
2023-03-23T06:37:29.993Z,23.58
2023-03-23T06:39:34.974Z,23.58
2023-03-23T06:41:40.013Z,23.55
2023-03-23T06:43:45.008Z,23.55
2023-03-23T06:45:49.985Z,23.54
2023-03-23T06:47:55.004Z,23.54
2023-03-23T06:50:00.001Z,23.54
2023-03-23T06:52:05.010Z,23.54
2023-03-23T06:54:10.154Z,23.54
2023-03-23T06:56:15.201Z,23.53
2023-03-23T06:58:20.227Z,23.52
2023-03-23T07:00:25.225Z,23.53
2023-03-23T07:02:30.238Z,23.53
2023-03-23T07:04:35.228Z,23.54
2023-03-23T07:06:40.192Z,23.55
2023-03-23T07:08:45.182Z,23.57
2023-03-23T07:10:50.161Z,23.56
2023-03-23T07:12:55.272Z,23.58
2023-03-23T07:15:00.315Z,23.59
2023-03-23T07:17:05.355Z,23.57
2023-03-23T07:19:10.351Z,23.55
2023-03-23T07:21:15.368Z,23.52
2023-03-23T07:23:20.336Z,23.51
2023-03-23T07:25:25.308Z,23.5
2023-03-23T07:27:30.353Z,23.69
2023-03-23T07:29:35.385Z,23.97
2023-03-23T07:31:40.404Z,24.16
2023-03-23T07:33:45.415Z,24.28
2023-03-23T07:35:50.413Z,24.33
2023-03-23T07:37:55.505Z,24.36
2023-03-23T07:40:04.588Z,24.35
2023-03-23T07:42:09.715Z,24.38
2023-03-23T07:44:14.635Z,24.35
2023-03-23T07:46:19.615Z,24.38
2023-03-23T07:48:24.684Z,24.39
2023-03-23T07:50:29.646Z,24.4
2023-03-23T07:52:34.703Z,24.43
2023-03-23T07:54:39.677Z,24.4
2023-03-23T07:56:44.674Z,24.38
2023-03-23T07:58:49.670Z,24.36
2023-03-23T08:00:54.658Z,24.35
2023-03-23T08:02:59.696Z,24.36
2023-03-23T08:05:04.804Z,24.34
2023-03-23T08:07:09.806Z,24.36
2023-03-23T08:09:23.574Z,24.32
2023-03-23T08:11:28.564Z,24.34
2023-03-23T08:13:33.610Z,24.29
2023-03-23T08:15:39.028Z,24.29
2023-03-23T08:17:44.488Z,24.25
2023-03-23T08:19:49.546Z,24.21
2023-03-23T08:21:54.537Z,24.23
2023-03-23T08:23:59.523Z,24.25
2023-03-23T08:26:04.550Z,24.26
2023-03-23T08:28:09.541Z,24.26
2023-03-23T08:30:14.596Z,24.26
2023-03-23T08:32:19.642Z,24.28
2023-03-23T08:34:24.770Z,24.26
2023-03-23T08:36:29.782Z,24.26
2023-03-23T08:38:34.763Z,24.27
2023-03-23T08:40:39.740Z,24.27
2023-03-23T08:42:47.318Z,24.29
2023-03-23T08:45:04.111Z,24.3
2023-03-23T08:47:09.167Z,24.3
2023-03-23T08:49:14.370Z,24.34
2023-03-23T08:51:19.418Z,24.33
2023-03-23T08:53:24.531Z,24.34
2023-03-23T08:55:29.537Z,24.34
2023-03-23T08:57:34.553Z,24.32
2023-03-23T08:59:39.552Z,24.33
2023-03-23T09:01:44.588Z,24.3
2023-03-23T09:03:54.360Z,24.3
2023-03-23T09:05:59.396Z,24.3
2023-03-23T09:08:04.485Z,24.31
2023-03-23T09:10:09.458Z,24.31
2023-03-23T09:12:14.514Z,24.31
2023-03-23T09:14:19.510Z,24.32
2023-03-23T09:16:24.503Z,24.35
2023-03-23T09:18:29.532Z,24.31
2023-03-23T09:20:34.815Z,24.31
2023-03-23T09:22:39.923Z,24.32
2023-03-23T09:24:45.018Z,24.33
2023-03-23T09:26:49.990Z,24.31
2023-03-23T09:28:54.999Z,24.31
2023-03-23T09:31:00.009Z,24.3
2023-03-23T09:33:05.031Z,24.33
2023-03-23T09:35:10.024Z,24.34
2023-03-23T09:37:15.002Z,24.33
2023-03-23T09:39:19.992Z,24.31
2023-03-23T09:41:25.068Z,24.3
2023-03-23T09:43:30.038Z,24.28
2023-03-23T09:45:35.039Z,24.31
2023-03-23T09:47:40.024Z,24.34
2023-03-23T09:49:45.098Z,24.33
2023-03-23T09:51:50.075Z,24.36
2023-03-23T09:53:55.190Z,24.37
2023-03-23T09:56:00.185Z,24.37
2023-03-23T09:58:05.227Z,24.37
2023-03-23T10:00:10.257Z,24.37
2023-03-23T10:02:15.263Z,24.36
2023-03-23T10:04:20.373Z,24.36
2023-03-23T10:06:25.400Z,24.37
2023-03-23T10:08:30.403Z,24.38
2023-03-23T10:10:35.420Z,24.33
2023-03-23T10:12:40.408Z,24.31
2023-03-23T10:14:45.394Z,24.35
2023-03-23T10:16:50.493Z,24.37
2023-03-23T10:18:55.465Z,24.42
2023-03-23T10:21:00.496Z,24.45
2023-03-23T10:23:05.510Z,24.43
2023-03-23T10:25:10.496Z,24.42
2023-03-23T10:27:15.522Z,24.43
2023-03-23T10:29:20.500Z,24.45
2023-03-23T10:31:25.481Z,24.49
2023-03-23T10:33:30.514Z,24.48
2023-03-23T10:35:35.515Z,24.5
2023-03-23T10:37:43.641Z,24.51
2023-03-23T10:39:48.684Z,24.51
2023-03-23T10:41:53.708Z,24.5
2023-03-23T10:43:58.739Z,24.51
2023-03-23T10:46:03.986Z,24.49
2023-03-23T10:48:09.731Z,24.48
2023-03-23T10:50:14.794Z,24.5
2023-03-23T10:52:19.762Z,24.49
2023-03-23T10:54:24.830Z,24.46
2023-03-23T10:56:29.992Z,24.45
2023-03-23T10:58:50.415Z,24.43
2023-03-23T11:00:55.437Z,24.44
2023-03-23T11:03:00.479Z,24.44
2023-03-23T11:05:09.475Z,24.44
2023-03-23T11:07:22.994Z,24.49
2023-03-23T11:09:27.956Z,24.55
2023-03-23T11:11:32.960Z,24.58
2023-03-23T11:13:37.968Z,24.58
2023-03-23T11:15:43.091Z,24.57
2023-03-23T11:17:48.559Z,24.56
2023-03-23T11:19:53.650Z,24.52
2023-03-23T11:21:58.647Z,24.57
2023-03-23T11:24:09.473Z,24.61
2023-03-23T11:26:15.182Z,24.62
2023-03-23T11:28:20.301Z,24.64
2023-03-23T11:30:25.408Z,24.62
2023-03-23T11:32:30.390Z,24.63
2023-03-23T11:34:35.455Z,24.57
2023-03-23T11:36:40.528Z,24.57
2023-03-23T11:38:45.569Z,24.58
2023-03-23T11:40:50.614Z,24.57
2023-03-23T11:42:55.710Z,24.56
2023-03-23T11:45:00.769Z,24.54
2023-03-23T11:47:05.851Z,24.57
2023-03-23T11:49:19.356Z,24.57
2023-03-23T11:51:35.604Z,24.58
2023-03-23T11:53:40.580Z,24.58
2023-03-23T11:55:45.575Z,24.59
2023-03-23T11:57:55.263Z,24.55
2023-03-23T12:00:00.356Z,24.58
2023-03-23T12:02:15.164Z,24.59
2023-03-23T12:04:22.013Z,24.57
2023-03-23T12:06:28.827Z,24.57
2023-03-23T12:08:33.864Z,24.56
2023-03-23T12:10:40.893Z,24.59
2023-03-23T12:12:59.914Z,24.58
2023-03-23T12:15:05.002Z,24.59
2023-03-23T12:17:10.033Z,24.57
2023-03-23T12:19:15.028Z,24.57
2023-03-23T12:21:20.003Z,24.59
2023-03-23T12:23:25.146Z,24.6
2023-03-23T12:25:30.107Z,24.62
2023-03-23T12:27:35.147Z,24.59
2023-03-23T12:29:40.183Z,24.54
2023-03-23T12:33:50.395Z,24.54
2023-03-23T12:35:55.370Z,24.57
2023-03-23T12:38:00.534Z,24.55
2023-03-23T12:40:05.561Z,24.55
2023-03-23T12:42:10.651Z,24.56
2023-03-23T12:44:15.735Z,24.58
2023-03-23T12:46:20.776Z,24.56
2023-03-23T12:48:25.746Z,24.59
2023-03-23T12:50:30.750Z,24.6
2023-03-23T12:52:35.817Z,24.63
2023-03-23T12:54:40.969Z,24.63
2023-03-23T12:56:45.935Z,24.62
2023-03-23T12:58:53.341Z,24.59
2023-03-23T13:00:58.937Z,24.6
2023-03-23T13:03:03.969Z,24.6
2023-03-23T13:05:09.239Z,24.61
2023-03-23T13:07:18.135Z,24.61
2023-03-23T13:09:23.164Z,24.6
2023-03-23T13:11:28.161Z,24.61
2023-03-23T13:13:34.864Z,24.6
2023-03-23T13:15:57.878Z,24.63
2023-03-23T13:18:02.905Z,24.65
2023-03-23T13:20:07.963Z,24.7
2023-03-23T13:22:12.982Z,24.69
2023-03-23T13:24:18.129Z,24.74
2023-03-23T13:26:23.121Z,24.73
2023-03-23T13:28:28.087Z,24.7
2023-03-23T13:30:33.144Z,24.7
2023-03-23T13:32:40.966Z,24.68
2023-03-23T13:35:00.123Z,24.68
2023-03-23T13:37:05.149Z,24.7
2023-03-23T13:39:10.193Z,24.68
2023-03-23T13:41:15.226Z,24.67
2023-03-23T13:43:20.213Z,24.66
2023-03-23T13:45:25.227Z,24.66
2023-03-23T13:47:30.297Z,24.64
2023-03-23T13:49:35.355Z,24.56
2023-03-23T13:51:40.397Z,24.46
2023-03-23T13:53:45.417Z,24.36
2023-03-23T13:55:50.650Z,24.32
2023-03-23T13:57:55.683Z,24.28
2023-03-23T14:00:00.621Z,24.24
2023-03-23T14:02:05.601Z,24.17
2023-03-23T14:04:10.576Z,24.12
2023-03-23T14:06:15.553Z,24.05
2023-03-23T14:08:20.534Z,24
2023-03-23T14:10:25.646Z,23.96
2023-03-23T14:12:30.678Z,23.97
2023-03-23T14:14:35.655Z,23.97
2023-03-23T14:16:40.695Z,24.03
2023-03-23T14:18:45.778Z,24.03
2023-03-23T14:20:50.762Z,24.02
2023-03-23T14:22:55.812Z,24.02
2023-03-23T14:25:00.792Z,24.01
2023-03-23T14:27:05.833Z,24
2023-03-23T14:29:10.837Z,24.03
2023-03-23T14:31:15.818Z,24.06
2023-03-23T14:33:20.839Z,24.11
2023-03-23T14:35:25.915Z,24.15
2023-03-23T14:37:30.895Z,24.23
2023-03-23T14:39:35.883Z,24.29
2023-03-23T14:41:40.833Z,24.32
2023-03-23T14:43:45.912Z,24.34
2023-03-23T14:45:50.908Z,24.28
2023-03-23T14:47:57.653Z,24.22
2023-03-23T14:50:02.740Z,24.18
2023-03-23T14:52:07.750Z,24.18
2023-03-23T14:54:12.793Z,24.18
2023-03-23T14:56:17.827Z,24.19
2023-03-23T14:58:22.829Z,24.15
2023-03-23T15:00:27.848Z,24.11
2023-03-23T15:02:32.917Z,24.07
2023-03-23T15:04:37.906Z,24.01
2023-03-23T15:06:43.006Z,23.93
2023-03-23T15:08:47.964Z,23.94
2023-03-23T15:10:53.035Z,23.95
2023-03-23T15:12:58.120Z,23.99
2023-03-23T15:15:03.141Z,24.02
2023-03-23T15:17:08.131Z,24.11
2023-03-23T15:19:13.155Z,24.2
2023-03-23T15:21:18.120Z,24.28
2023-03-23T15:23:23.096Z,24.34
2023-03-23T15:25:28.128Z,24.39
2023-03-23T15:27:33.189Z,24.43
2023-03-23T15:29:38.236Z,24.47
2023-03-23T15:31:43.250Z,24.47
2023-03-23T15:33:48.513Z,24.48
2023-03-23T15:35:55.925Z,24.49
2023-03-23T15:38:00.927Z,24.47
2023-03-23T15:40:08.508Z,24.44
2023-03-23T15:42:13.489Z,24.44
2023-03-23T15:44:18.461Z,24.43
2023-03-23T15:46:23.477Z,24.47
2023-03-23T15:48:28.636Z,24.51
2023-03-23T15:50:33.626Z,24.51
2023-03-23T15:52:38.748Z,24.48
2023-03-23T15:54:43.797Z,24.48
2023-03-23T15:56:48.856Z,24.41
2023-03-23T15:58:53.843Z,24.4
2023-03-23T16:00:58.980Z,24.4
2023-03-23T16:03:04.376Z,24.38
2023-03-23T16:05:09.587Z,24.33
2023-03-23T16:07:14.594Z,24.33
2023-03-23T16:09:19.808Z,24.38
2023-03-23T16:11:24.799Z,24.45
2023-03-23T16:13:29.954Z,24.5
2023-03-23T16:15:35.007Z,24.53
2023-03-23T16:17:40.008Z,24.58
2023-03-23T16:19:45.186Z,24.61
2023-03-23T16:21:50.313Z,24.65
2023-03-23T16:23:55.445Z,24.6
2023-03-23T16:26:00.467Z,24.59
2023-03-23T16:28:05.442Z,24.59
2023-03-23T16:30:10.393Z,24.57
2023-03-23T16:32:15.412Z,24.54
2023-03-23T16:34:20.386Z,24.48
2023-03-23T16:36:34.631Z,24.46
2023-03-23T16:38:49.498Z,24.46
2023-03-23T16:40:58.680Z,24.47
2023-03-23T16:43:08.229Z,24.51
2023-03-23T16:45:13.871Z,24.54
2023-03-23T16:47:18.978Z,24.56
2023-03-23T16:49:23.983Z,24.57
2023-03-23T16:51:29.033Z,24.58
2023-03-23T16:53:34.009Z,24.58
2023-03-23T16:55:39.024Z,24.55
2023-03-23T16:57:44.960Z,24.55
2023-03-23T16:59:50.059Z,24.55
2023-03-23T17:01:55.220Z,24.56
2023-03-23T17:04:00.530Z,24.52
2023-03-23T17:06:05.604Z,24.53
2023-03-23T17:08:10.717Z,24.54
2023-03-23T17:10:15.932Z,24.54
2023-03-23T17:12:21.132Z,24.55
2023-03-23T17:14:26.249Z,24.55
2023-03-23T17:16:31.249Z,24.51
2023-03-23T17:18:36.440Z,24.41
2023-03-23T17:20:41.430Z,24.39
2023-03-23T17:22:46.422Z,24.3
2023-03-23T17:24:51.432Z,24.26
2023-03-23T17:26:56.426Z,24.27
2023-03-23T17:29:01.567Z,24.32
2023-03-23T17:31:06.823Z,24.36
2023-03-23T17:33:11.986Z,24.38
2023-03-23T17:35:17.123Z,24.4
2023-03-23T17:37:22.102Z,24.46
2023-03-23T17:39:27.200Z,24.51
2023-03-23T17:41:32.208Z,24.57
2023-03-23T17:43:37.236Z,24.63
2023-03-23T17:45:43.744Z,24.66
2023-03-23T17:47:51.467Z,24.67
2023-03-23T17:49:56.811Z,24.72
2023-03-23T17:52:02.035Z,24.77
2023-03-23T17:54:07.065Z,24.81
2023-03-23T17:56:12.148Z,24.86
2023-03-23T17:58:17.144Z,24.93
2023-03-23T18:00:22.202Z,24.97
2023-03-23T18:02:27.358Z,24.94
2023-03-23T18:04:32.580Z,24.88
2023-03-23T18:06:37.577Z,24.85
2023-03-23T18:08:42.670Z,24.8
2023-03-23T18:10:47.779Z,24.75
2023-03-23T18:12:52.784Z,24.73
2023-03-23T18:14:57.830Z,24.75
2023-03-23T18:17:02.903Z,24.78
2023-03-23T18:19:07.952Z,24.83
2023-03-23T18:21:12.938Z,24.89
2023-03-23T18:23:18.000Z,24.9
2023-03-23T18:25:23.085Z,24.95
2023-03-23T18:27:28.192Z,24.98
2023-03-23T18:29:33.236Z,25.01
2023-03-23T18:31:38.262Z,25.03
2023-03-23T18:33:43.508Z,25.05
2023-03-23T18:35:48.731Z,25.06
2023-03-23T18:37:54.217Z,25.07
2023-03-23T18:39:59.221Z,25.07
2023-03-23T18:42:04.326Z,25.08
2023-03-23T18:44:09.451Z,25.1
2023-03-23T18:46:14.505Z,25.13
2023-03-23T18:48:19.726Z,25.16
2023-03-23T18:50:24.733Z,25.19
2023-03-23T18:52:29.817Z,25.2
2023-03-23T18:54:34.869Z,25.2
2023-03-23T18:56:40.164Z,25.22
2023-03-23T18:58:45.329Z,25.25
2023-03-23T19:00:50.326Z,25.24
2023-03-23T19:02:57.484Z,25.21
2023-03-23T19:05:02.853Z,25.17
2023-03-23T19:07:07.886Z,25.13
2023-03-23T19:09:13.110Z,25.12
2023-03-23T19:11:18.119Z,25.12
2023-03-23T19:13:23.109Z,25.12
2023-03-23T19:15:28.181Z,25.12
2023-03-23T19:17:33.603Z,25.11
2023-03-23T19:19:38.794Z,25.12
2023-03-23T19:21:47.122Z,25.12
2023-03-23T19:23:52.302Z,25.13
2023-03-23T19:25:57.404Z,25.14
2023-03-23T19:31:06.518Z,25.21
2023-03-23T19:33:11.650Z,25.25
2023-03-23T19:35:16.772Z,25.29
2023-03-23T19:37:23.012Z,25.3
2023-03-23T19:39:28.450Z,25.32
2023-03-23T19:41:33.590Z,25.33
2023-03-23T19:43:38.786Z,25.34
2023-03-23T19:45:44.761Z,25.35
2023-03-23T19:47:50.129Z,25.34
2023-03-23T19:49:55.333Z,25.33
2023-03-23T19:52:06.290Z,25.33
2023-03-23T19:54:19.565Z,25.32
2023-03-23T19:56:25.372Z,25.31
2023-03-23T19:58:32.492Z,25.32
2023-03-23T20:00:38.595Z,25.33
2023-03-23T20:02:44.148Z,25.34
2023-03-23T20:04:50.087Z,25.34
2023-03-23T20:06:55.370Z,25.34
2023-03-23T20:09:01.391Z,25.35
2023-03-23T20:11:07.814Z,25.35
2023-03-23T20:13:12.966Z,25.35
2023-03-23T20:15:17.972Z,25.33
2023-03-23T20:17:23.118Z,25.31
2023-03-23T20:19:28.650Z,25.3
2023-03-23T20:21:33.760Z,25.3
2023-03-23T20:23:38.805Z,25.31
2023-03-23T20:25:43.895Z,25.32
2023-03-23T20:27:49.472Z,25.33
2023-03-23T20:29:54.493Z,25.34
2023-03-23T20:31:59.747Z,25.34
2023-03-23T20:34:04.721Z,25.36
2023-03-23T20:36:09.745Z,25.36
2023-03-23T20:38:15.089Z,25.35
2023-03-23T20:40:20.190Z,25.32
2023-03-23T20:42:25.198Z,25.33
2023-03-23T20:44:30.230Z,25.35
2023-03-23T20:46:35.311Z,25.36
2023-03-23T20:48:40.402Z,25.35
2023-03-23T20:50:45.512Z,25.33
2023-03-23T20:52:50.702Z,25.3
2023-03-23T20:54:56.001Z,25.29
2023-03-23T20:57:00.990Z,25.26
2023-03-23T20:59:06.208Z,25.24
2023-03-23T21:01:11.272Z,25.23
2023-03-23T21:03:16.601Z,25.21
2023-03-23T21:05:21.632Z,25.18
2023-03-23T21:07:26.658Z,25.17
2023-03-23T21:09:31.634Z,25.17
2023-03-23T21:11:36.607Z,25.18
2023-03-23T21:13:41.605Z,25.14
2023-03-23T21:15:46.721Z,25.12
2023-03-23T21:17:54.539Z,25.1
2023-03-23T21:19:59.944Z,25.08
2023-03-23T21:22:05.028Z,25.05
2023-03-23T21:24:10.020Z,25.04
2023-03-23T21:26:15.278Z,25.02
2023-03-23T21:28:20.299Z,25.03
2023-03-23T21:30:25.328Z,25.03
2023-03-23T21:32:30.343Z,25.01
2023-03-23T21:34:35.429Z,24.99
2023-03-23T21:36:40.565Z,24.98
2023-03-23T21:38:45.611Z,24.96
2023-03-23T21:40:50.603Z,24.94
2023-03-23T21:42:55.588Z,24.93
2023-03-23T21:45:00.637Z,24.91
2023-03-23T21:47:05.662Z,24.9
2023-03-23T21:49:10.677Z,24.88
2023-03-23T21:51:15.783Z,24.89
2023-03-23T21:53:20.826Z,24.88
2023-03-23T21:55:25.852Z,24.88
2023-03-23T21:57:30.830Z,24.86
2023-03-23T21:59:35.865Z,24.86
2023-03-23T22:01:40.939Z,24.83
2023-03-23T22:03:46.158Z,24.81
2023-03-23T22:05:51.175Z,24.81
2023-03-23T22:07:56.210Z,24.79
2023-03-23T22:10:01.271Z,24.79
2023-03-23T22:12:06.313Z,24.8
2023-03-23T22:14:11.303Z,24.81
2023-03-23T22:16:16.320Z,24.81
2023-03-23T22:18:21.530Z,24.79
2023-03-23T22:20:26.528Z,24.78
2023-03-23T22:22:31.733Z,24.78
2023-03-23T22:24:36.707Z,24.76
2023-03-23T22:26:41.705Z,24.75
2023-03-23T22:28:46.974Z,24.75
2023-03-23T22:30:51.998Z,24.74
2023-03-23T22:32:57.034Z,24.73
2023-03-23T22:35:02.157Z,24.73
2023-03-23T22:37:07.366Z,24.73
2023-03-23T22:39:12.490Z,24.72
2023-03-23T22:41:17.498Z,24.72
2023-03-23T22:43:22.506Z,24.72
2023-03-23T22:45:27.466Z,24.71
2023-03-23T22:47:32.587Z,24.71
2023-03-23T22:49:37.733Z,24.72
2023-03-23T22:51:42.771Z,24.69
2023-03-23T22:53:47.763Z,24.69
2023-03-23T22:55:52.747Z,24.68
2023-03-23T22:57:57.817Z,24.68
2023-03-23T23:00:02.893Z,24.68
2023-03-23T23:02:08.073Z,24.68
2023-03-23T23:04:13.141Z,24.67
2023-03-23T23:06:18.337Z,24.67
2023-03-23T23:08:23.384Z,24.68
2023-03-23T23:10:28.431Z,24.68
2023-03-23T23:12:33.441Z,24.68
2023-03-23T23:14:38.389Z,24.68
2023-03-23T23:16:43.467Z,24.68
2023-03-23T23:18:48.570Z,24.67
2023-03-23T23:20:53.578Z,24.65
2023-03-23T23:22:58.713Z,24.63
2023-03-23T23:25:03.710Z,24.65
2023-03-23T23:27:08.742Z,24.65
2023-03-23T23:29:13.832Z,24.63
2023-03-23T23:31:19.033Z,24.65
2023-03-23T23:33:24.131Z,24.64
2023-03-23T23:35:29.185Z,24.63
2023-03-23T23:37:34.379Z,24.63
2023-03-23T23:39:39.360Z,24.63
2023-03-23T23:41:44.572Z,24.61
2023-03-23T23:43:49.534Z,24.61
2023-03-23T23:45:54.573Z,24.61
2023-03-23T23:47:59.920Z,24.62
2023-03-23T23:50:05.290Z,24.62
2023-03-23T23:52:10.347Z,24.61
2023-03-23T23:54:15.349Z,24.61
2023-03-23T23:56:20.393Z,24.61
2023-03-23T23:58:25.351Z,24.62
